sensor_id;sensor_type;location;lat;lon;timestamp;P1;durP1;ratioP1;P2;durP2;ratioP2
10260;SDS011;5175;42.606;23.388;2023-12-20T00:02:14;7.93;;;5.50;;
10260;SDS011;5175;42.606;23.388;2023-12-20T00:04:41;8.87;;;7.20;;
10260;SDS011;5175;42.606;23.388;2023-12-20T00:07:07;8.13;;;6.50;;
10260;SDS011;5175;42.606;23.388;2023-12-20T00:09:34;8.27;;;6.87;;
10260;SDS011;5175;42.606;23.388;2023-12-20T00:12:02;8.97;;;7.63;;
10260;SDS011;5175;42.606;23.388;2023-12-20T00:14:29;9.43;;;8.07;;
10260;SDS011;5175;42.606;23.388;2023-12-20T00:16:56;9.53;;;7.80;;
10260;SDS011;5175;42.606;23.388;2023-12-20T00:19:22;10.07;;;6.80;;
10260;SDS011;5175;42.606;23.388;2023-12-20T00:21:49;8.63;;;7.37;;
10260;SDS011;5175;42.606;23.388;2023-12-20T00:24:16;8.47;;;6.97;;
10260;SDS011;5175;42.606;23.388;2023-12-20T00:26:42;9.27;;;6.37;;
10260;SDS011;5175;42.606;23.388;2023-12-20T00:29:10;7.13;;;5.90;;
10260;SDS011;5175;42.606;23.388;2023-12-20T00:31:37;7.47;;;5.90;;
10260;SDS011;5175;42.606;23.388;2023-12-20T00:34:04;8.63;;;7.03;;
10260;SDS011;5175;42.606;23.388;2023-12-20T00:36:31;9.27;;;7.60;;
10260;SDS011;5175;42.606;23.388;2023-12-20T00:38:57;7.20;;;5.47;;
10260;SDS011;5175;42.606;23.388;2023-12-20T00:41:24;6.80;;;5.30;;
10260;SDS011;5175;42.606;23.388;2023-12-20T00:43:51;8.03;;;5.87;;
10260;SDS011;5175;42.606;23.388;2023-12-20T00:46:19;8.17;;;6.40;;
10260;SDS011;5175;42.606;23.388;2023-12-20T00:48:46;9.30;;;7.20;;
10260;SDS011;5175;42.606;23.388;2023-12-20T00:51:12;8.10;;;6.47;;
10260;SDS011;5175;42.606;23.388;2023-12-20T00:53:39;9.27;;;7.07;;
10260;SDS011;5175;42.606;23.388;2023-12-20T00:56:06;11.67;;;8.17;;
10260;SDS011;5175;42.606;23.388;2023-12-20T00:58:33;16.97;;;10.37;;
10260;SDS011;5175;42.606;23.388;2023-12-20T01:01:00;9.00;;;7.03;;
10260;SDS011;5175;42.606;23.388;2023-12-20T01:03:28;6.23;;;4.70;;
10260;SDS011;5175;42.606;23.388;2023-12-20T01:05:55;6.40;;;4.63;;
10260;SDS011;5175;42.606;23.388;2023-12-20T01:08:21;6.07;;;5.13;;
10260;SDS011;5175;42.606;23.388;2023-12-20T01:10:48;5.87;;;4.70;;
10260;SDS011;5175;42.606;23.388;2023-12-20T01:13:15;6.83;;;5.43;;
10260;SDS011;5175;42.606;23.388;2023-12-20T01:15:42;6.77;;;4.40;;
10260;SDS011;5175;42.606;23.388;2023-12-20T01:18:08;6.90;;;4.83;;
10260;SDS011;5175;42.606;23.388;2023-12-20T01:20:36;7.30;;;5.53;;
10260;SDS011;5175;42.606;23.388;2023-12-20T01:23:03;7.43;;;5.70;;
10260;SDS011;5175;42.606;23.388;2023-12-20T01:25:30;7.30;;;5.33;;
10260;SDS011;5175;42.606;23.388;2023-12-20T01:27:57;7.77;;;6.37;;
10260;SDS011;5175;42.606;23.388;2023-12-20T01:30:23;8.37;;;6.57;;
10260;SDS011;5175;42.606;23.388;2023-12-20T01:32:50;7.47;;;6.23;;
10260;SDS011;5175;42.606;23.388;2023-12-20T01:35:17;6.40;;;5.53;;
10260;SDS011;5175;42.606;23.388;2023-12-20T01:37:45;8.73;;;6.17;;
10260;SDS011;5175;42.606;23.388;2023-12-20T01:40:12;8.47;;;6.13;;
10260;SDS011;5175;42.606;23.388;2023-12-20T01:42:38;7.43;;;5.50;;
10260;SDS011;5175;42.606;23.388;2023-12-20T01:45:05;6.07;;;4.77;;
10260;SDS011;5175;42.606;23.388;2023-12-20T01:47:32;6.37;;;5.50;;
10260;SDS011;5175;42.606;23.388;2023-12-20T01:49:59;6.47;;;4.93;;
10260;SDS011;5175;42.606;23.388;2023-12-20T01:52:28;7.53;;;5.50;;
10260;SDS011;5175;42.606;23.388;2023-12-20T01:54:57;8.27;;;5.80;;
10260;SDS011;5175;42.606;23.388;2023-12-20T01:57:27;8.03;;;6.13;;
10260;SDS011;5175;42.606;23.388;2023-12-20T01:59:55;11.00;;;7.40;;
10260;SDS011;5175;42.606;23.388;2023-12-20T02:02:22;9.10;;;6.97;;
10260;SDS011;5175;42.606;23.388;2023-12-20T02:04:48;8.77;;;6.37;;
10260;SDS011;5175;42.606;23.388;2023-12-20T02:07:16;8.40;;;6.07;;
10260;SDS011;5175;42.606;23.388;2023-12-20T02:09:43;9.47;;;6.73;;
10260;SDS011;5175;42.606;23.388;2023-12-20T02:12:11;8.10;;;6.30;;
10260;SDS011;5175;42.606;23.388;2023-12-20T02:14:38;7.80;;;6.13;;
10260;SDS011;5175;42.606;23.388;2023-12-20T02:17:05;9.10;;;6.73;;
10260;SDS011;5175;42.606;23.388;2023-12-20T02:19:32;8.30;;;6.17;;
10260;SDS011;5175;42.606;23.388;2023-12-20T02:22:07;8.17;;;6.40;;
10260;SDS011;5175;42.606;23.388;2023-12-20T02:24:34;10.83;;;7.30;;
10260;SDS011;5175;42.606;23.388;2023-12-20T02:27:01;10.80;;;7.57;;
10260;SDS011;5175;42.606;23.388;2023-12-20T02:29:28;8.97;;;6.57;;
10260;SDS011;5175;42.606;23.388;2023-12-20T02:31:55;9.10;;;6.53;;
10260;SDS011;5175;42.606;23.388;2023-12-20T02:34:22;8.77;;;6.50;;
10260;SDS011;5175;42.606;23.388;2023-12-20T02:36:48;8.33;;;6.63;;
10260;SDS011;5175;42.606;23.388;2023-12-20T02:39:18;7.23;;;5.77;;
10260;SDS011;5175;42.606;23.388;2023-12-20T02:41:45;9.37;;;5.90;;
10260;SDS011;5175;42.606;23.388;2023-12-20T02:44:12;5.53;;;4.70;;
10260;SDS011;5175;42.606;23.388;2023-12-20T02:46:38;5.50;;;4.27;;
10260;SDS011;5175;42.606;23.388;2023-12-20T02:49:05;6.07;;;4.87;;
10260;SDS011;5175;42.606;23.388;2023-12-20T02:51:32;5.57;;;4.47;;
10260;SDS011;5175;42.606;23.388;2023-12-20T02:53:59;5.93;;;4.50;;
10260;SDS011;5175;42.606;23.388;2023-12-20T02:56:27;6.67;;;4.80;;
10260;SDS011;5175;42.606;23.388;2023-12-20T02:58:53;6.17;;;5.03;;
10260;SDS011;5175;42.606;23.388;2023-12-20T03:01:20;7.50;;;5.10;;
10260;SDS011;5175;42.606;23.388;2023-12-20T03:03:47;5.90;;;4.83;;
10260;SDS011;5175;42.606;23.388;2023-12-20T03:06:15;6.67;;;4.93;;
10260;SDS011;5175;42.606;23.388;2023-12-20T03:08:43;6.00;;;4.63;;
10260;SDS011;5175;42.606;23.388;2023-12-20T03:11:10;6.13;;;5.00;;
10260;SDS011;5175;42.606;23.388;2023-12-20T03:13:38;7.67;;;5.87;;
10260;SDS011;5175;42.606;23.388;2023-12-20T03:16:07;9.07;;;6.50;;
10260;SDS011;5175;42.606;23.388;2023-12-20T03:18:35;6.93;;;5.03;;
10260;SDS011;5175;42.606;23.388;2023-12-20T03:21:02;6.20;;;4.70;;
10260;SDS011;5175;42.606;23.388;2023-12-20T03:23:29;6.23;;;4.67;;
10260;SDS011;5175;42.606;23.388;2023-12-20T03:25:57;6.30;;;4.57;;
10260;SDS011;5175;42.606;23.388;2023-12-20T03:28:24;6.53;;;5.17;;
10260;SDS011;5175;42.606;23.388;2023-12-20T03:30:52;8.07;;;5.77;;
10260;SDS011;5175;42.606;23.388;2023-12-20T03:33:19;10.03;;;6.07;;
10260;SDS011;5175;42.606;23.388;2023-12-20T03:35:46;8.13;;;5.73;;
10260;SDS011;5175;42.606;23.388;2023-12-20T03:38:12;7.97;;;5.90;;
10260;SDS011;5175;42.606;23.388;2023-12-20T03:40:39;8.33;;;6.10;;
10260;SDS011;5175;42.606;23.388;2023-12-20T03:43:06;7.83;;;5.90;;
10260;SDS011;5175;42.606;23.388;2023-12-20T03:45:33;6.97;;;5.27;;
10260;SDS011;5175;42.606;23.388;2023-12-20T03:48:01;14.50;;;5.90;;
10260;SDS011;5175;42.606;23.388;2023-12-20T03:50:28;7.63;;;5.90;;
10260;SDS011;5175;42.606;23.388;2023-12-20T03:52:55;7.77;;;6.00;;
10260;SDS011;5175;42.606;23.388;2023-12-20T03:55:22;8.77;;;5.87;;
10260;SDS011;5175;42.606;23.388;2023-12-20T03:57:48;7.47;;;5.70;;
10260;SDS011;5175;42.606;23.388;2023-12-20T04:00:15;7.83;;;6.20;;
10260;SDS011;5175;42.606;23.388;2023-12-20T04:02:42;8.60;;;6.73;;
10260;SDS011;5175;42.606;23.388;2023-12-20T04:05:10;8.43;;;6.80;;
10260;SDS011;5175;42.606;23.388;2023-12-20T04:07:37;9.33;;;6.97;;
10260;SDS011;5175;42.606;23.388;2023-12-20T04:10:05;8.53;;;7.07;;
10260;SDS011;5175;42.606;23.388;2023-12-20T04:12:32;9.17;;;6.90;;
10260;SDS011;5175;42.606;23.388;2023-12-20T04:14:59;9.13;;;7.00;;
10260;SDS011;5175;42.606;23.388;2023-12-20T04:17:26;10.53;;;7.30;;
10260;SDS011;5175;42.606;23.388;2023-12-20T04:19:52;11.10;;;8.43;;
10260;SDS011;5175;42.606;23.388;2023-12-20T04:22:20;11.73;;;8.97;;
10260;SDS011;5175;42.606;23.388;2023-12-20T04:24:47;12.37;;;8.77;;
10260;SDS011;5175;42.606;23.388;2023-12-20T04:27:14;9.97;;;7.30;;
10260;SDS011;5175;42.606;23.388;2023-12-20T04:29:40;11.47;;;7.93;;
10260;SDS011;5175;42.606;23.388;2023-12-20T04:32:07;10.53;;;7.67;;
10260;SDS011;5175;42.606;23.388;2023-12-20T04:34:34;10.40;;;7.30;;
10260;SDS011;5175;42.606;23.388;2023-12-20T04:37:01;12.03;;;8.97;;
10260;SDS011;5175;42.606;23.388;2023-12-20T04:39:29;15.33;;;11.10;;
10260;SDS011;5175;42.606;23.388;2023-12-20T04:41:56;14.53;;;10.23;;
10260;SDS011;5175;42.606;23.388;2023-12-20T04:44:22;17.23;;;12.10;;
10260;SDS011;5175;42.606;23.388;2023-12-20T04:46:49;14.77;;;11.10;;
10260;SDS011;5175;42.606;23.388;2023-12-20T04:49:16;11.60;;;8.90;;
10260;SDS011;5175;42.606;23.388;2023-12-20T04:51:43;12.53;;;9.53;;
10260;SDS011;5175;42.606;23.388;2023-12-20T04:54:09;12.40;;;9.40;;
10260;SDS011;5175;42.606;23.388;2023-12-20T04:56:38;12.03;;;8.57;;
10260;SDS011;5175;42.606;23.388;2023-12-20T04:59:04;10.70;;;7.90;;
10260;SDS011;5175;42.606;23.388;2023-12-20T05:01:31;10.50;;;8.33;;
10260;SDS011;5175;42.606;23.388;2023-12-20T05:03:58;10.87;;;8.10;;
10260;SDS011;5175;42.606;23.388;2023-12-20T05:06:25;13.20;;;9.77;;
10260;SDS011;5175;42.606;23.388;2023-12-20T05:08:52;9.50;;;8.03;;
10260;SDS011;5175;42.606;23.388;2023-12-20T05:11:18;8.20;;;6.63;;
10260;SDS011;5175;42.606;23.388;2023-12-20T05:13:46;9.17;;;7.00;;
10260;SDS011;5175;42.606;23.388;2023-12-20T05:16:13;7.90;;;6.47;;
10260;SDS011;5175;42.606;23.388;2023-12-20T05:18:42;9.03;;;6.80;;
10260;SDS011;5175;42.606;23.388;2023-12-20T05:21:09;8.83;;;6.70;;
10260;SDS011;5175;42.606;23.388;2023-12-20T05:23:36;7.77;;;6.20;;
10260;SDS011;5175;42.606;23.388;2023-12-20T05:26:03;8.37;;;6.73;;
10260;SDS011;5175;42.606;23.388;2023-12-20T05:28:29;9.33;;;7.63;;
10260;SDS011;5175;42.606;23.388;2023-12-20T05:30:57;9.13;;;6.83;;
10260;SDS011;5175;42.606;23.388;2023-12-20T05:33:24;11.43;;;8.43;;
10260;SDS011;5175;42.606;23.388;2023-12-20T05:35:51;9.77;;;7.47;;
10260;SDS011;5175;42.606;23.388;2023-12-20T05:38:17;10.53;;;8.30;;
10260;SDS011;5175;42.606;23.388;2023-12-20T05:40:44;9.87;;;8.87;;
10260;SDS011;5175;42.606;23.388;2023-12-20T05:43:11;9.70;;;8.10;;
10260;SDS011;5175;42.606;23.388;2023-12-20T05:45:37;11.17;;;7.70;;
10260;SDS011;5175;42.606;23.388;2023-12-20T05:48:06;8.53;;;6.53;;
10260;SDS011;5175;42.606;23.388;2023-12-20T05:50:33;8.73;;;6.60;;
10260;SDS011;5175;42.606;23.388;2023-12-20T05:53:00;8.13;;;6.80;;
10260;SDS011;5175;42.606;23.388;2023-12-20T05:55:27;7.57;;;6.43;;
10260;SDS011;5175;42.606;23.388;2023-12-20T05:57:54;9.20;;;7.60;;
10260;SDS011;5175;42.606;23.388;2023-12-20T06:00:20;7.70;;;6.60;;
10260;SDS011;5175;42.606;23.388;2023-12-20T06:02:47;8.17;;;6.53;;
10260;SDS011;5175;42.606;23.388;2023-12-20T06:05:15;10.93;;;6.53;;
10260;SDS011;5175;42.606;23.388;2023-12-20T06:07:42;7.73;;;6.90;;
10260;SDS011;5175;42.606;23.388;2023-12-20T06:10:10;8.07;;;6.50;;
10260;SDS011;5175;42.606;23.388;2023-12-20T06:12:36;6.97;;;6.23;;
10260;SDS011;5175;42.606;23.388;2023-12-20T06:15:03;8.13;;;6.43;;
10260;SDS011;5175;42.606;23.388;2023-12-20T06:17:31;8.33;;;6.83;;
10260;SDS011;5175;42.606;23.388;2023-12-20T06:19:57;8.57;;;6.57;;
10260;SDS011;5175;42.606;23.388;2023-12-20T06:22:25;8.47;;;6.80;;
10260;SDS011;5175;42.606;23.388;2023-12-20T06:24:52;7.57;;;6.40;;
10260;SDS011;5175;42.606;23.388;2023-12-20T06:27:19;8.50;;;7.33;;
10260;SDS011;5175;42.606;23.388;2023-12-20T06:29:45;8.27;;;6.97;;
10260;SDS011;5175;42.606;23.388;2023-12-20T06:32:12;8.30;;;7.00;;
10260;SDS011;5175;42.606;23.388;2023-12-20T06:34:39;10.47;;;7.73;;
10260;SDS011;5175;42.606;23.388;2023-12-20T06:37:05;10.37;;;8.43;;
10260;SDS011;5175;42.606;23.388;2023-12-20T06:39:33;9.93;;;8.23;;
10260;SDS011;5175;42.606;23.388;2023-12-20T06:42:00;11.03;;;8.17;;
10260;SDS011;5175;42.606;23.388;2023-12-20T06:44:27;10.00;;;8.77;;
10260;SDS011;5175;42.606;23.388;2023-12-20T06:46:54;9.73;;;8.47;;
10260;SDS011;5175;42.606;23.388;2023-12-20T06:49:20;11.30;;;9.53;;
10260;SDS011;5175;42.606;23.388;2023-12-20T06:51:47;10.50;;;8.10;;
10260;SDS011;5175;42.606;23.388;2023-12-20T06:54:14;10.63;;;8.77;;
10260;SDS011;5175;42.606;23.388;2023-12-20T06:56:42;9.63;;;8.07;;
10260;SDS011;5175;42.606;23.388;2023-12-20T06:59:09;10.77;;;8.90;;
10260;SDS011;5175;42.606;23.388;2023-12-20T07:01:35;10.70;;;8.53;;
10260;SDS011;5175;42.606;23.388;2023-12-20T07:04:03;10.47;;;8.57;;
10260;SDS011;5175;42.606;23.388;2023-12-20T07:06:30;9.37;;;7.83;;
10260;SDS011;5175;42.606;23.388;2023-12-20T07:08:56;9.97;;;8.43;;
10260;SDS011;5175;42.606;23.388;2023-12-20T07:11:23;12.43;;;9.47;;
10260;SDS011;5175;42.606;23.388;2023-12-20T07:13:52;11.47;;;8.80;;
10260;SDS011;5175;42.606;23.388;2023-12-20T07:16:18;11.40;;;8.60;;
10260;SDS011;5175;42.606;23.388;2023-12-20T07:18:45;11.10;;;8.73;;
10260;SDS011;5175;42.606;23.388;2023-12-20T07:21:12;10.43;;;8.63;;
10260;SDS011;5175;42.606;23.388;2023-12-20T07:23:38;12.03;;;8.93;;
10260;SDS011;5175;42.606;23.388;2023-12-20T07:26:05;10.77;;;8.50;;
10260;SDS011;5175;42.606;23.388;2023-12-20T07:28:32;10.97;;;8.80;;
10260;SDS011;5175;42.606;23.388;2023-12-20T07:31:00;10.40;;;8.23;;
10260;SDS011;5175;42.606;23.388;2023-12-20T07:33:27;11.90;;;9.50;;
10260;SDS011;5175;42.606;23.388;2023-12-20T07:35:53;10.60;;;8.97;;
10260;SDS011;5175;42.606;23.388;2023-12-20T07:38:20;12.93;;;9.73;;
10260;SDS011;5175;42.606;23.388;2023-12-20T07:40:47;25.43;;;19.20;;
10260;SDS011;5175;42.606;23.388;2023-12-20T07:43:13;199.77;;;127.90;;
10260;SDS011;5175;42.606;23.388;2023-12-20T07:45:40;37.33;;;27.93;;
10260;SDS011;5175;42.606;23.388;2023-12-20T07:48:08;33.53;;;23.73;;
10260;SDS011;5175;42.606;23.388;2023-12-20T07:50:35;30.20;;;23.13;;
10260;SDS011;5175;42.606;23.388;2023-12-20T07:53:02;29.70;;;23.60;;
10260;SDS011;5175;42.606;23.388;2023-12-20T07:55:29;30.27;;;23.57;;
10260;SDS011;5175;42.606;23.388;2023-12-20T07:57:57;32.37;;;24.03;;
10260;SDS011;5175;42.606;23.388;2023-12-20T08:00:23;31.87;;;24.10;;
10260;SDS011;5175;42.606;23.388;2023-12-20T08:02:50;30.13;;;22.53;;
10260;SDS011;5175;42.606;23.388;2023-12-20T08:05:18;28.27;;;21.07;;
10260;SDS011;5175;42.606;23.388;2023-12-20T08:07:45;28.97;;;22.00;;
10260;SDS011;5175;42.606;23.388;2023-12-20T08:10:12;31.43;;;22.87;;
10260;SDS011;5175;42.606;23.388;2023-12-20T08:12:38;30.70;;;23.27;;
10260;SDS011;5175;42.606;23.388;2023-12-20T08:15:06;29.60;;;22.83;;
10260;SDS011;5175;42.606;23.388;2023-12-20T08:17:33;27.07;;;20.73;;
10260;SDS011;5175;42.606;23.388;2023-12-20T08:20:00;21.17;;;17.37;;
10260;SDS011;5175;42.606;23.388;2023-12-20T08:22:28;20.77;;;17.13;;
10260;SDS011;5175;42.606;23.388;2023-12-20T08:24:54;22.17;;;17.10;;
10260;SDS011;5175;42.606;23.388;2023-12-20T08:27:21;26.17;;;19.40;;
10260;SDS011;5175;42.606;23.388;2023-12-20T08:29:48;26.83;;;20.50;;
10260;SDS011;5175;42.606;23.388;2023-12-20T08:32:15;30.70;;;23.17;;
10260;SDS011;5175;42.606;23.388;2023-12-20T08:34:42;35.03;;;25.73;;
10260;SDS011;5175;42.606;23.388;2023-12-20T08:37:09;35.13;;;25.77;;
10260;SDS011;5175;42.606;23.388;2023-12-20T08:39:37;34.43;;;25.63;;
10260;SDS011;5175;42.606;23.388;2023-12-20T08:42:04;35.43;;;25.23;;
10260;SDS011;5175;42.606;23.388;2023-12-20T08:44:31;31.83;;;24.93;;
10260;SDS011;5175;42.606;23.388;2023-12-20T08:46:57;30.93;;;24.23;;
10260;SDS011;5175;42.606;23.388;2023-12-20T08:49:24;31.80;;;24.33;;
10260;SDS011;5175;42.606;23.388;2023-12-20T08:51:51;39.63;;;28.70;;
10260;SDS011;5175;42.606;23.388;2023-12-20T08:54:18;40.40;;;28.37;;
10260;SDS011;5175;42.606;23.388;2023-12-20T08:56:46;38.77;;;29.43;;
10260;SDS011;5175;42.606;23.388;2023-12-20T08:59:12;45.97;;;31.10;;
10260;SDS011;5175;42.606;23.388;2023-12-20T09:01:39;44.03;;;28.30;;
10260;SDS011;5175;42.606;23.388;2023-12-20T09:04:06;42.30;;;29.37;;
10260;SDS011;5175;42.606;23.388;2023-12-20T09:06:32;45.03;;;29.43;;
10260;SDS011;5175;42.606;23.388;2023-12-20T09:08:59;44.87;;;29.33;;
10260;SDS011;5175;42.606;23.388;2023-12-20T09:11:26;45.70;;;29.57;;
10260;SDS011;5175;42.606;23.388;2023-12-20T09:13:54;43.03;;;28.23;;
10260;SDS011;5175;42.606;23.388;2023-12-20T09:16:20;44.70;;;29.77;;
10260;SDS011;5175;42.606;23.388;2023-12-20T09:18:47;40.53;;;29.47;;
10260;SDS011;5175;42.606;23.388;2023-12-20T09:21:14;50.23;;;30.87;;
10260;SDS011;5175;42.606;23.388;2023-12-20T09:23:41;44.17;;;30.40;;
10260;SDS011;5175;42.606;23.388;2023-12-20T09:26:07;51.87;;;29.40;;
10260;SDS011;5175;42.606;23.388;2023-12-20T09:28:34;50.90;;;31.07;;
10260;SDS011;5175;42.606;23.388;2023-12-20T09:31:04;45.30;;;30.27;;
10260;SDS011;5175;42.606;23.388;2023-12-20T09:33:31;42.33;;;29.57;;
10260;SDS011;5175;42.606;23.388;2023-12-20T09:35:58;42.20;;;28.70;;
10260;SDS011;5175;42.606;23.388;2023-12-20T09:38:25;44.20;;;29.93;;
10260;SDS011;5175;42.606;23.388;2023-12-20T09:40:52;44.47;;;29.17;;
10260;SDS011;5175;42.606;23.388;2023-12-20T09:43:19;44.87;;;30.87;;
10260;SDS011;5175;42.606;23.388;2023-12-20T09:45:49;44.70;;;31.20;;
10260;SDS011;5175;42.606;23.388;2023-12-20T09:48:21;49.67;;;32.27;;
10260;SDS011;5175;42.606;23.388;2023-12-20T09:50:48;55.53;;;32.93;;
10260;SDS011;5175;42.606;23.388;2023-12-20T09:53:15;53.73;;;33.70;;
10260;SDS011;5175;42.606;23.388;2023-12-20T09:55:44;48.87;;;32.33;;
10260;SDS011;5175;42.606;23.388;2023-12-20T09:58:10;53.70;;;33.93;;
10260;SDS011;5175;42.606;23.388;2023-12-20T10:00:37;47.47;;;32.57;;
10260;SDS011;5175;42.606;23.388;2023-12-20T10:03:04;40.60;;;29.80;;
10260;SDS011;5175;42.606;23.388;2023-12-20T10:05:34;41.90;;;29.63;;
10260;SDS011;5175;42.606;23.388;2023-12-20T10:08:00;43.30;;;30.13;;
10260;SDS011;5175;42.606;23.388;2023-12-20T10:10:28;45.10;;;30.33;;
10260;SDS011;5175;42.606;23.388;2023-12-20T10:13:01;43.10;;;30.40;;
10260;SDS011;5175;42.606;23.388;2023-12-20T10:15:28;45.13;;;32.30;;
10260;SDS011;5175;42.606;23.388;2023-12-20T10:17:56;41.50;;;30.67;;
10260;SDS011;5175;42.606;23.388;2023-12-20T10:20:23;43.57;;;30.37;;
10260;SDS011;5175;42.606;23.388;2023-12-20T10:22:51;42.53;;;30.93;;
10260;SDS011;5175;42.606;23.388;2023-12-20T10:25:19;43.97;;;30.67;;
10260;SDS011;5175;42.606;23.388;2023-12-20T10:27:46;42.33;;;30.00;;
10260;SDS011;5175;42.606;23.388;2023-12-20T10:30:13;38.10;;;28.67;;
10260;SDS011;5175;42.606;23.388;2023-12-20T10:32:40;42.77;;;29.70;;
10260;SDS011;5175;42.606;23.388;2023-12-20T10:35:07;44.40;;;30.40;;
10260;SDS011;5175;42.606;23.388;2023-12-20T10:37:35;40.77;;;30.50;;
10260;SDS011;5175;42.606;23.388;2023-12-20T10:40:04;40.20;;;29.77;;
10260;SDS011;5175;42.606;23.388;2023-12-20T10:42:32;43.27;;;31.73;;
10260;SDS011;5175;42.606;23.388;2023-12-20T10:45:01;43.33;;;31.17;;
10260;SDS011;5175;42.606;23.388;2023-12-20T10:47:28;45.27;;;32.97;;
10260;SDS011;5175;42.606;23.388;2023-12-20T10:49:58;44.57;;;35.43;;
10260;SDS011;5175;42.606;23.388;2023-12-20T10:52:26;48.77;;;35.63;;
10260;SDS011;5175;42.606;23.388;2023-12-20T10:54:55;49.67;;;37.67;;
10260;SDS011;5175;42.606;23.388;2023-12-20T10:57:23;49.00;;;37.90;;
10260;SDS011;5175;42.606;23.388;2023-12-20T10:59:53;51.73;;;37.90;;
10260;SDS011;5175;42.606;23.388;2023-12-20T11:02:21;52.37;;;38.53;;
10260;SDS011;5175;42.606;23.388;2023-12-20T11:04:50;54.70;;;37.17;;
10260;SDS011;5175;42.606;23.388;2023-12-20T11:07:22;50.63;;;36.93;;
10260;SDS011;5175;42.606;23.388;2023-12-20T11:09:57;48.50;;;36.67;;
10260;SDS011;5175;42.606;23.388;2023-12-20T11:12:32;42.13;;;33.53;;
10260;SDS011;5175;42.606;23.388;2023-12-20T11:15:04;44.13;;;34.90;;
10260;SDS011;5175;42.606;23.388;2023-12-20T11:17:33;43.30;;;34.73;;
10260;SDS011;5175;42.606;23.388;2023-12-20T11:20:07;44.13;;;34.00;;
10260;SDS011;5175;42.606;23.388;2023-12-20T11:22:36;42.70;;;33.93;;
10260;SDS011;5175;42.606;23.388;2023-12-20T11:25:07;44.87;;;34.43;;
10260;SDS011;5175;42.606;23.388;2023-12-20T11:27:36;44.57;;;35.13;;
10260;SDS011;5175;42.606;23.388;2023-12-20T11:30:07;44.77;;;33.93;;
10260;SDS011;5175;42.606;23.388;2023-12-20T11:32:35;47.03;;;35.30;;
10260;SDS011;5175;42.606;23.388;2023-12-20T11:35:16;51.80;;;37.87;;
10260;SDS011;5175;42.606;23.388;2023-12-20T11:37:44;52.73;;;38.10;;
10260;SDS011;5175;42.606;23.388;2023-12-20T11:40:13;49.57;;;36.07;;
10260;SDS011;5175;42.606;23.388;2023-12-20T11:42:43;50.00;;;36.53;;
10260;SDS011;5175;42.606;23.388;2023-12-20T11:45:12;45.30;;;35.07;;
10260;SDS011;5175;42.606;23.388;2023-12-20T11:47:41;48.17;;;35.87;;
10260;SDS011;5175;42.606;23.388;2023-12-20T11:50:09;48.50;;;35.67;;
10260;SDS011;5175;42.606;23.388;2023-12-20T11:52:36;47.50;;;35.70;;
10260;SDS011;5175;42.606;23.388;2023-12-20T11:55:03;48.90;;;36.43;;
10260;SDS011;5175;42.606;23.388;2023-12-20T11:57:30;50.63;;;36.60;;
10260;SDS011;5175;42.606;23.388;2023-12-20T11:59:58;49.83;;;38.37;;
10260;SDS011;5175;42.606;23.388;2023-12-20T12:02:25;49.03;;;36.37;;
10260;SDS011;5175;42.606;23.388;2023-12-20T12:04:52;48.07;;;36.10;;
10260;SDS011;5175;42.606;23.388;2023-12-20T12:07:18;43.90;;;35.07;;
10260;SDS011;5175;42.606;23.388;2023-12-20T12:09:45;46.87;;;35.33;;
10260;SDS011;5175;42.606;23.388;2023-12-20T12:12:12;49.20;;;37.27;;
10260;SDS011;5175;42.606;23.388;2023-12-20T12:14:40;46.90;;;35.07;;
10260;SDS011;5175;42.606;23.388;2023-12-20T12:17:11;42.70;;;33.10;;
10260;SDS011;5175;42.606;23.388;2023-12-20T12:19:38;43.80;;;33.97;;
10260;SDS011;5175;42.606;23.388;2023-12-20T12:22:05;44.20;;;34.73;;
10260;SDS011;5175;42.606;23.388;2023-12-20T12:24:35;42.50;;;34.80;;
10260;SDS011;5175;42.606;23.388;2023-12-20T12:27:02;42.83;;;32.50;;
10260;SDS011;5175;42.606;23.388;2023-12-20T12:29:29;39.93;;;32.57;;
10260;SDS011;5175;42.606;23.388;2023-12-20T12:31:55;41.20;;;32.00;;
10260;SDS011;5175;42.606;23.388;2023-12-20T12:34:24;43.30;;;33.20;;
10260;SDS011;5175;42.606;23.388;2023-12-20T12:36:51;48.23;;;36.30;;
10260;SDS011;5175;42.606;23.388;2023-12-20T12:39:19;44.20;;;34.50;;
10260;SDS011;5175;42.606;23.388;2023-12-20T12:41:46;46.70;;;35.27;;
10260;SDS011;5175;42.606;23.388;2023-12-20T12:44:13;48.33;;;37.60;;
10260;SDS011;5175;42.606;23.388;2023-12-20T12:46:39;48.27;;;37.57;;
10260;SDS011;5175;42.606;23.388;2023-12-20T12:49:06;50.20;;;38.73;;
10260;SDS011;5175;42.606;23.388;2023-12-20T12:51:34;47.67;;;37.10;;
10260;SDS011;5175;42.606;23.388;2023-12-20T12:54:01;52.00;;;38.20;;
10260;SDS011;5175;42.606;23.388;2023-12-20T12:56:28;48.33;;;37.67;;
10260;SDS011;5175;42.606;23.388;2023-12-20T12:58:55;51.17;;;38.83;;
10260;SDS011;5175;42.606;23.388;2023-12-20T13:01:22;49.73;;;38.30;;
10260;SDS011;5175;42.606;23.388;2023-12-20T13:03:49;51.97;;;37.57;;
10260;SDS011;5175;42.606;23.388;2023-12-20T13:06:15;56.90;;;40.50;;
10260;SDS011;5175;42.606;23.388;2023-12-20T13:08:44;52.23;;;38.43;;
10260;SDS011;5175;42.606;23.388;2023-12-20T13:11:11;49.60;;;38.27;;
10260;SDS011;5175;42.606;23.388;2023-12-20T13:13:38;52.60;;;40.37;;
10260;SDS011;5175;42.606;23.388;2023-12-20T13:16:04;49.40;;;39.37;;
10260;SDS011;5175;42.606;23.388;2023-12-20T13:18:31;53.03;;;40.37;;
10260;SDS011;5175;42.606;23.388;2023-12-20T13:20:58;52.33;;;39.23;;
10260;SDS011;5175;42.606;23.388;2023-12-20T13:23:25;52.10;;;39.53;;
10260;SDS011;5175;42.606;23.388;2023-12-20T13:25:53;51.73;;;40.23;;
10260;SDS011;5175;42.606;23.388;2023-12-20T13:28:20;53.80;;;40.73;;
10260;SDS011;5175;42.606;23.388;2023-12-20T13:30:46;55.20;;;40.77;;
10260;SDS011;5175;42.606;23.388;2023-12-20T13:33:13;55.73;;;42.77;;
10260;SDS011;5175;42.606;23.388;2023-12-20T13:35:40;54.37;;;41.23;;
10260;SDS011;5175;42.606;23.388;2023-12-20T13:38:07;56.73;;;42.53;;
10260;SDS011;5175;42.606;23.388;2023-12-20T13:40:33;54.07;;;41.20;;
10260;SDS011;5175;42.606;23.388;2023-12-20T13:43:02;54.27;;;40.30;;
10260;SDS011;5175;42.606;23.388;2023-12-20T13:45:29;57.13;;;40.67;;
10260;SDS011;5175;42.606;23.388;2023-12-20T13:47:55;55.60;;;42.20;;
10260;SDS011;5175;42.606;23.388;2023-12-20T13:50:22;57.33;;;41.23;;
10260;SDS011;5175;42.606;23.388;2023-12-20T13:52:49;1220.77;;;121.07;;
10260;SDS011;5175;42.606;23.388;2023-12-20T13:55:15;67.33;;;46.47;;
10260;SDS011;5175;42.606;23.388;2023-12-20T13:57:42;59.97;;;44.17;;
10260;SDS011;5175;42.606;23.388;2023-12-20T14:00:11;57.27;;;43.47;;
10260;SDS011;5175;42.606;23.388;2023-12-20T14:02:39;46.53;;;35.53;;
10260;SDS011;5175;42.606;23.388;2023-12-20T14:05:06;61.67;;;47.03;;
10260;SDS011;5175;42.606;23.388;2023-12-20T14:07:33;52.30;;;39.50;;
10260;SDS011;5175;42.606;23.388;2023-12-20T14:10:00;50.73;;;39.63;;
10260;SDS011;5175;42.606;23.388;2023-12-20T14:12:26;43.30;;;31.70;;
10260;SDS011;5175;42.606;23.388;2023-12-20T14:14:53;35.37;;;25.60;;
10260;SDS011;5175;42.606;23.388;2023-12-20T14:17:22;39.73;;;29.00;;
10260;SDS011;5175;42.606;23.388;2023-12-20T14:19:49;43.70;;;33.60;;
10260;SDS011;5175;42.606;23.388;2023-12-20T14:22:16;35.43;;;26.83;;
10260;SDS011;5175;42.606;23.388;2023-12-20T14:24:43;27.73;;;20.73;;
10260;SDS011;5175;42.606;23.388;2023-12-20T14:27:10;32.37;;;26.63;;
10260;SDS011;5175;42.606;23.388;2023-12-20T14:29:38;58.20;;;45.83;;
10260;SDS011;5175;42.606;23.388;2023-12-20T14:32:05;67.40;;;49.60;;
10260;SDS011;5175;42.606;23.388;2023-12-20T14:34:33;63.80;;;45.13;;